Time;durP1;ratioP1;P1;durP2;ratioP2;P2;SDS_P1;SDS_P2;PMS_P1;PMS_P2;Temp;Humidity;BMP_temperature;BMP_pressure;BME280_temperature;BME280_humidity;BME280_pressure;Samples;Min_cycle;Max_cycle;Signal;HPM_P1;HPM_P2
2024/04/13 00:01:11;;;;;;;19.77;9.77;;;15.90;99.90;;;20.87;53.74;99769.28;5512445;26;20002;-75
2024/04/13 00:03:44;;;;;;;20.33;10.82;;;15.80;99.90;;;20.85;53.78;99767.75;5522649;26;20012;-76
2024/04/13 00:06:16;;;;;;;21.83;11.30;;;15.80;99.90;;;20.80;53.78;99770.03;5520770;26;20009;-77
2024/04/13 00:08:44;;;;;;;23.55;11.20;;;15.80;99.90;;;20.78;53.86;99770.19;5519930;26;20005;-79
2024/04/13 00:11:14;;;;;;;23.67;12.45;;;15.80;99.90;;;20.79;53.83;99768.38;5510569;25;20450;-78
2024/04/13 00:13:42;;;;;;;21.45;10.52;;;15.70;99.90;;;20.78;54.18;99764.88;5490275;26;20005;-78
2024/04/13 00:16:17;;;;;;;18.60;10.70;;;15.70;99.90;;;20.74;53.90;99771.53;5519645;26;20469;-78
2024/04/13 00:18:45;;;;;;;19.98;11.73;;;15.60;99.90;;;20.71;54.07;99766.50;5485636;26;20009;-77
2024/04/13 00:21:21;;;;;;;23.23;10.38;;;15.60;99.90;;;20.62;53.94;99776.25;5523737;26;20013;-77
2024/04/13 00:23:55;;;;;;;22.67;11.40;;;15.50;99.90;;;20.52;54.37;99772.84;5509211;26;19998;-77
2024/04/13 00:26:27;;;;;;;17.60;10.00;;;15.50;99.90;;;20.49;54.31;99767.81;5507779;26;20476;-76
2024/04/13 00:28:59;;;;;;;18.23;10.65;;;15.40;99.90;;;20.47;54.53;99763.66;5521976;26;20346;-77
2024/04/13 00:31:30;;;;;;;18.95;9.98;;;15.40;99.90;;;20.47;54.68;99761.00;5495276;26;20009;-76
2024/04/13 00:34:04;;;;;;;20.90;9.07;;;15.40;99.90;;;20.45;54.57;99763.00;5520458;26;20006;-77
2024/04/13 00:36:42;;;;;;;18.88;9.65;;;15.40;99.90;;;20.42;54.52;99766.75;5521267;26;20005;-77
2024/04/13 00:39:14;;;;;;;15.77;9.23;;;15.40;99.90;;;20.36;54.72;99756.75;5523066;26;20001;-76
2024/04/13 00:41:53;;;;;;;15.88;9.77;;;15.40;99.90;;;20.33;55.04;99748.25;5525963;26;20448;-76
2024/04/13 00:44:25;;;;;;;19.45;9.40;;;15.30;99.90;;;20.33;54.79;99756.22;5495622;26;20342;-78
2024/04/13 00:47:05;;;;;;;18.92;10.57;;;15.30;99.90;;;20.33;54.56;99756.22;5516182;26;20473;-77
2024/04/13 00:49:33;;;;;;;21.42;10.80;;;15.30;99.90;;;20.27;54.88;99746.19;5509339;26;20331;-77
2024/04/13 00:52:15;;;;;;;20.58;9.73;;;15.30;99.90;;;20.24;54.62;99751.78;5518546;26;20346;-77
2024/04/13 00:54:48;;;;;;;17.10;10.00;;;15.20;99.90;;;20.21;54.80;99747.63;5517696;26;20582;-77
2024/04/13 00:57:23;;;;;;;15.98;9.70;;;15.20;99.90;;;20.20;55.06;99749.44;5524891;26;20073;-78
2024/04/13 00:59:56;;;;;;;18.02;9.90;;;15.20;99.90;;;20.22;54.71;99751.94;5524442;26;20059;-77
2024/04/13 01:02:28;;;;;;;19.35;9.77;;;15.20;99.90;;;20.16;55.03;99750.72;5522829;26;20005;-78
2024/04/13 01:05:00;;;;;;;24.20;10.68;;;15.10;99.90;;;20.07;54.73;99751.66;5524381;26;20469;-79
2024/04/13 01:07:39;;;;;;;19.10;10.23;;;15.10;99.90;;;20.10;54.89;99754.00;5523911;26;20001;-78
2024/04/13 01:10:11;;;;;;;18.33;9.50;;;15.10;99.90;;;20.09;55.17;99752.31;5512943;26;20014;-78
2024/04/13 01:12:43;;;;;;;21.35;9.80;;;15.10;99.90;;;20.09;55.22;99752.31;5516019;26;20450;-78
2024/04/13 01:15:16;;;;;;;17.13;9.82;;;15.00;99.90;;;20.10;55.16;99753.16;5522799;26;20013;-78
2024/04/13 01:17:51;;;;;;;24.23;9.98;;;15.00;99.90;;;20.11;55.15;99747.72;5523559;26;20006;-78
2024/04/13 01:20:19;;;;;;;19.45;9.73;;;15.00;99.90;;;20.04;55.24;99748.47;5522866;26;20006;-79
2024/04/13 01:22:59;;;;;;;23.13;10.30;;;14.90;99.90;;;19.96;55.38;99754.53;5523219;26;20050;-78
2024/04/13 01:25:30;;;;;;;17.70;10.02;;;14.90;99.90;;;19.89;55.49;99748.13;5488507;26;20005;-79
2024/04/13 01:28:00;;;;;;;21.83;11.27;;;14.80;99.90;;;19.87;55.83;99747.47;5522921;26;20005;-78
2024/04/13 01:30:34;;;;;;;20.35;11.00;;;14.80;99.90;;;19.88;55.41;99746.50;5523257;26;20013;-77
2024/04/13 01:33:10;;;;;;;18.35;10.18;;;14.80;99.90;;;19.86;55.54;99745.78;5515444;26;19999;-76
2024/04/13 01:35:41;;;;;;;23.07;11.20;;;14.80;99.90;;;19.80;55.85;99742.91;5579137;20;20006;31
2024/04/13 01:38:11;;;;;;;20.98;11.25;;;14.80;99.90;;;19.73;55.65;99742.66;5424969;26;20014;-79
2024/04/13 01:40:41;;;;;;;19.55;11.38;;;14.70;99.90;;;19.71;56.25;99746.47;5427514;26;20008;-79
2024/04/13 01:43:12;;;;;;;18.88;11.13;;;14.70;99.90;;;19.66;56.08;99744.25;5431880;26;20018;-78
2024/04/13 01:45:39;;;;;;;19.40;10.82;;;14.70;99.90;;;19.64;56.14;99746.22;5439999;26;20014;-79
2024/04/13 01:48:10;;;;;;;20.02;10.55;;;14.70;99.90;;;19.63;56.04;99752.50;5417074;26;20022;-79
2024/04/13 01:50:38;;;;;;;17.92;11.00;;;14.60;99.90;;;19.60;56.23;99739.53;5438635;26;20014;-81
2024/04/13 01:53:08;;;;;;;19.33;10.13;;;14.60;99.90;;;19.58;56.28;99744.16;5450504;26;20006;-79
2024/04/13 01:55:36;;;;;;;20.83;10.10;;;14.60;99.90;;;19.54;56.22;99745.44;5451816;26;20087;-80
2024/04/13 01:58:14;;;;;;;20.92;10.85;;;14.60;99.90;;;19.50;56.64;99734.28;5450129;26;20333;-80
2024/04/13 02:00:42;;;;;;;22.05;11.40;;;14.50;99.90;;;19.49;56.43;99739.75;5448417;26;20018;-80
2024/04/13 02:03:12;;;;;;;21.30;10.40;;;14.60;99.90;;;19.48;56.42;99743.38;5439530;26;20018;-80
2024/04/13 02:05:39;;;;;;;17.52;9.75;;;14.60;99.90;;;19.49;56.63;99747.72;5450016;26;20017;-80
2024/04/13 02:08:10;;;;;;;16.45;10.02;;;14.50;99.90;;;19.49;56.39;99745.91;5438282;26;20003;-80
2024/04/13 02:10:39;;;;;;;15.43;9.32;;;14.50;99.90;;;19.50;56.54;99734.28;5433584;26;19999;-79
2024/04/13 02:13:09;;;;;;;20.60;9.00;;;14.50;99.90;;;19.50;56.44;99738.75;5447802;26;20007;-79
2024/04/13 02:15:46;;;;;;;17.48;9.52;;;14.70;99.90;;;19.43;56.39;99740.34;5449356;26;20007;-80
2024/04/13 02:18:21;;;;;;;16.10;8.00;;;14.50;99.90;;;19.45;56.29;99741.03;5451721;26;20007;-81
2024/04/13 02:20:55;;;;;;;20.85;8.32;;;14.40;99.90;;;19.39;56.50;99744.25;5452179;26;20463;-80
2024/04/13 02:23:26;;;;;;;19.30;8.98;;;14.40;99.90;;;19.39;56.38;99738.94;5451108;26;20103;-80
2024/04/13 02:26:00;;;;;;;15.77;9.25;;;14.40;99.90;;;19.38;56.50;99748.72;5449900;26;20006;-80
2024/04/13 02:28:32;;;;;;;15.98;10.55;;;14.40;99.90;;;19.37;56.72;99748.84;5445961;26;20448;-81
2024/04/13 02:31:04;;;;;;;17.58;9.65;;;14.40;99.90;;;19.34;56.52;99751.81;5451188;26;20007;-81
2024/04/13 02:33:34;;;;;;;19.05;9.55;;;14.40;99.90;;;19.31;56.54;99741.47;5453014;26;20006;-81
2024/04/13 02:36:04;;;;;;;15.45;8.68;;;14.40;99.90;;;19.32;56.67;99743.16;5426995;26;20012;-82
2024/04/13 02:38:35;;;;;;;21.85;8.73;;;14.40;99.90;;;19.34;56.21;99735.88;5457336;26;20007;-82
2024/04/13 02:41:03;;;;;;;20.55;8.80;;;14.40;99.90;;;19.32;56.55;99740.50;5452983;26;20019;-82
2024/04/13 02:43:39;;;;;;;18.10;7.93;;;14.40;99.90;;;19.34;56.42;99741.19;5454558;26;20085;-82
2024/04/13 02:46:10;;;;;;;17.33;8.68;;;14.40;99.90;;;19.34;56.13;99738.53;5467793;26;20014;-82
2024/04/13 02:48:41;;;;;;;18.83;9.60;;;14.40;99.90;;;19.30;56.42;99742.50;5419233;26;20005;-81
2024/04/13 02:51:10;;;;;;;16.88;8.77;;;14.30;99.90;;;19.30;56.55;99739.84;5452242;26;20002;-81
2024/04/13 02:53:40;;;;;;;15.07;8.10;;;14.30;99.90;;;19.29;56.65;99740.81;5451258;26;20006;-82
2024/04/13 02:56:08;;;;;;;19.33;9.60;;;14.30;99.90;;;19.28;56.65;99741.78;5452348;26;20007;-80
2024/04/13 02:58:39;;;;;;;18.38;9.10;;;14.30;99.90;;;19.23;56.70;99736.94;5452095;26;20080;-82
2024/04/13 03:01:09;;;;;;;15.43;9.07;;;14.30;99.90;;;19.24;56.55;99737.75;5452072;26;20014;-81
2024/04/13 03:03:39;;;;;;;18.85;8.65;;;14.30;99.90;;;19.21;56.62;99732.72;5445554;26;20013;-80
2024/04/13 03:06:11;;;;;;;18.15;8.80;;;14.30;99.90;;;19.20;56.45;99729.22;5448498;26;20003;-80
2024/04/13 03:08:41;;;;;;;;;;;14.20;99.90;;;18.97;56.53;99731.44;5412490;26;20019;-80
2024/04/13 03:11:09;;;;;;;20.55;8.95;;;14.20;99.90;;;19.15;56.93;99735.00;5448476;26;19924;-80
2024/04/13 03:13:45;;;;;;;16.90;8.80;;;14.20;99.90;;;19.16;56.57;99725.22;5449264;26;20006;-80
2024/04/13 03:16:15;;;;;;;15.15;8.50;;;14.20;99.90;;;19.14;56.70;99730.66;5448260;26;20007;-79
2024/04/13 03:18:52;;;;;;;14.23;7.97;;;14.20;99.90;;;19.11;56.46;99733.63;5446196;26;20022;-79
2024/04/13 03:21:20;;;;;;;20.13;9.38;;;14.20;99.90;;;19.07;56.91;99726.91;5410174;26;20026;-79
2024/04/13 03:23:51;;;;;;;16.10;8.65;;;14.20;99.90;;;19.05;56.75;99730.72;5409742;26;20030;-80
2024/04/13 03:26:18;;;;;;;19.50;9.02;;;14.10;99.90;;;19.06;57.08;99733.22;5400844;26;20837;-80
2024/04/13 03:28:49;;;;;;;15.00;7.68;;;14.10;99.90;;;19.06;56.87;99735.88;5415430;26;20008;-80
2024/04/13 03:31:22;;;;;;;17.23;8.15;;;14.10;99.90;;;19.08;56.79;99733.91;5419500;26;20018;-80
2024/04/13 03:33:53;;;;;;;17.85;7.95;;;14.10;99.90;;;19.07;56.95;99739.34;5451806;26;20083;-80
2024/04/13 03:36:20;;;;;;;14.60;7.40;;;14.10;99.90;;;19.05;56.88;99743.97;5420583;26;20018;-81
2024/04/13 03:38:51;;;;;;;21.42;7.97;;;14.30;99.90;;;19.02;56.66;99744.28;5386994;26;20542;-79
2024/04/13 03:41:21;;;;;;;18.85;8.13;;;14.10;99.90;;;19.04;56.87;99745.78;5348759;26;20008;-79
2024/04/13 03:43:49;;;;;;;13.82;7.03;;;14.10;99.90;;;19.03;56.53;99740.66;5378805;26;20067;-79
2024/04/13 03:46:23;;;;;;;22.25;7.53;;;14.10;99.90;;;19.04;56.79;99737.81;5372239;26;20342;-78
2024/04/13 03:48:51;;;;;;;14.10;6.97;;;14.20;99.90;;;19.02;56.49;99742.47;5347440;26;20020;-79
2024/04/13 03:51:21;;;;;;;20.10;8.27;;;14.00;99.90;;;19.04;56.39;99734.34;5378014;26;20019;-79
2024/04/13 03:53:53;;;;;;;19.13;6.93;;;14.10;99.90;;;19.04;56.55;99742.28;5377936;26;20007;-79
2024/04/13 03:56:24;;;;;;;19.63;7.40;;;14.00;99.90;;;19.04;56.62;99744.94;5383285;26;20418;-83
2024/04/13 03:58:52;;;;;;;10.52;6.55;;;13.90;99.90;;;19.02;56.43;99741.63;5386109;26;20348;-81
2024/04/13 04:01:25;;;;;;;11.23;6.40;;;14.00;99.90;;;19.00;57.13;99744.41;5384754;26;20008;-81
2024/04/13 04:03:53;;;;;;;18.98;7.75;;;13.90;99.90;;;19.01;56.72;99747.91;5411393;26;20010;-82
2024/04/13 04:06:23;;;;;;;14.27;6.28;;;14.10;99.90;;;18.98;56.74;99745.53;5384942;26;20007;-81
2024/04/13 04:08:51;;;;;;;14.18;7.40;;;13.90;99.90;;;18.95;56.64;99754.63;5404855;26;20015;-80
2024/04/13 04:11:21;;;;;;;15.52;6.78;;;13.90;99.90;;;18.90;56.63;99743.59;5394107;26;20007;-79
2024/04/13 04:13:49;;;;;;;16.23;7.25;;;13.90;99.90;;;18.90;56.74;99750.75;5415747;26;20629;-79
2024/04/13 04:16:19;;;;;;;15.32;7.35;;;13.90;99.90;;;18.85;56.72;99750.31;5383970;26;20003;-79
2024/04/13 04:18:50;;;;;;;19.50;7.30;;;13.80;99.90;;;18.80;56.44;99753.44;5410296;26;20480;-79
2024/04/13 04:21:22;;;;;;;17.15;8.10;;;13.80;99.90;;;18.74;56.87;99753.97;5380352;26;20081;-79
2024/04/13 04:23:50;;;;;;;17.38;7.30;;;13.80;99.90;;;18.71;56.56;99753.44;5379770;26;20012;-78
2024/04/13 04:26:20;;;;;;;14.60;7.80;;;13.80;99.90;;;18.67;56.93;99747.59;5395976;26;20469;-79
2024/04/13 04:28:48;;;;;;;19.58;7.60;;;13.80;99.90;;;18.61;57.02;99745.50;5379344;26;20004;-79
2024/04/13 04:31:18;;;;;;;14.77;7.60;;;13.80;99.90;;;18.60;56.81;99751.78;5413130;26;20077;-78
2024/04/13 04:33:52;;;;;;;12.40;7.30;;;13.70;99.90;;;18.59;57.26;99750.13;5409773;26;19999;-78
2024/04/13 04:36:23;;;;;;;18.33;7.50;;;13.70;99.90;;;18.59;57.17;99755.41;5400961;26;20018;-79
2024/04/13 04:38:51;;;;;;;15.70;8.60;;;13.70;99.90;;;18.59;57.15;99753.59;5458570;26;20017;-79
2024/04/13 04:41:21;;;;;;;21.48;8.10;;;13.70;99.90;;;18.56;57.55;99755.69;5441362;26;19999;-79
2024/04/13 04:43:49;;;;;;;17.23;8.65;;;13.70;99.90;;;18.55;57.40;99759.31;5455329;26;20533;-79
2024/04/13 04:46:20;;;;;;;21.90;8.13;;;13.70;99.90;;;18.57;57.44;99752.91;5454520;26;20003;-78
2024/04/13 04:48:50;;;;;;;17.50;7.32;;;13.70;99.90;;;18.59;57.15;99760.72;5450531;26;20013;-78
2024/04/13 04:51:21;;;;;;;19.55;8.25;;;13.60;99.90;;;18.59;56.83;99761.56;5451349;26;20042;-79
2024/04/13 04:53:48;;;;;;;15.02;7.55;;;13.60;99.90;;;18.57;57.18;99762.69;5445599;26;19995;-80
2024/04/13 04:56:20;;;;;;;18.65;7.97;;;13.60;99.90;;;18.55;56.94;99759.31;5459866;26;20038;-79
2024/04/13 04:58:51;;;;;;;13.82;7.47;;;13.60;99.90;;;18.56;57.16;99761.00;5461623;26;20007;-79
2024/04/13 05:01:18;;;;;;;16.43;8.00;;;13.60;99.90;;;18.57;56.50;99762.69;5467344;26;20018;-78
2024/04/13 05:03:48;;;;;;;16.88;7.80;;;13.60;99.90;;;18.60;57.17;99762.41;5447873;26;20022;-79
2024/04/13 05:06:19;;;;;;;23.38;8.27;;;13.70;99.90;;;18.60;56.99;99762.41;5428423;26;20051;-79
2024/04/13 05:08:50;;;;;;;20.63;8.70;;;13.70;99.90;;;18.63;56.99;99773.56;5478104;26;20043;-80
2024/04/13 05:11:18;;;;;;;24.10;8.13;;;13.70;99.90;;;18.60;57.04;99768.56;5483466;26;20195;-81
2024/04/13 05:13:48;;;;;;;20.33;7.65;;;13.80;99.90;;;18.61;56.87;99772.00;5456589;26;19999;-81
2024/04/13 05:16:16;;;;;;;16.45;7.10;;;13.80;99.90;;;18.64;56.90;99777.88;5440914;26;20347;-80
2024/04/13 05:18:46;;;;;;;18.65;6.85;;;13.80;99.90;;;18.65;56.86;99782.22;5458481;26;20026;-79
2024/04/13 05:21:14;;;;;;;18.40;6.85;;;13.80;99.90;;;18.69;56.58;99785.41;5459070;26;20017;-79
2024/04/13 05:23:47;;;;;;;15.88;7.32;;;13.80;99.90;;;18.69;56.77;99788.06;5466644;26;20467;-80
2024/04/13 05:26:15;;;;;;;22.10;7.50;;;13.90;99.90;;;18.70;56.30;99794.22;5433498;26;20018;-79
2024/04/13 05:28:45;;;;;;;16.67;7.32;;;13.90;99.90;;;18.70;56.76;99797.69;5450413;26;20316;-79
2024/04/13 05:31:13;;;;;;;18.05;7.18;;;14.00;99.90;;;18.69;57.05;99797.84;5486713;26;20006;-80
2024/04/13 05:33:44;;;;;;;13.57;7.03;;;14.00;99.90;;;18.73;56.84;99792.13;5432255;26;20000;-79
2024/04/13 05:36:11;;;;;;;15.20;7.15;;;14.10;99.90;;;18.81;56.63;99804.63;5423115;26;20017;-79
2024/04/13 05:38:42;;;;;;;17.65;6.82;;;14.10;99.90;;;18.86;56.29;99805.91;5476363;26;20021;-80
2024/04/13 05:41:12;;;;;;;13.95;6.57;;;14.20;99.90;;;18.90;56.11;99817.06;5486690;26;20056;-79
2024/04/13 05:43:42;;;;;;;18.42;6.57;;;14.30;99.90;;;18.94;56.29;99813.97;5448153;26;20014;-79
2024/04/13 05:46:10;;;;;;;16.25;6.90;;;14.40;99.90;;;19.02;56.18;99816.75;5427794;26;20052;-79
2024/04/13 05:48:40;;;;;;;17.75;6.15;;;14.50;99.90;;;19.10;55.72;99819.50;5446039;26;20006;-79
2024/04/13 05:51:09;;;;;;;17.23;6.63;;;14.60;99.90;;;19.15;55.54;99819.09;5454571;26;20007;-79
2024/04/13 05:53:40;;;;;;;9.98;6.28;;;14.70;99.90;;;19.21;55.81;99825.63;5433736;26;19995;-80
2024/04/13 05:56:11;;;;;;;12.48;6.38;;;14.80;99.90;;;19.28;55.52;99824.06;5433699;26;20362;-79
2024/04/13 05:58:41;;;;;;;13.68;6.32;;;14.90;99.90;;;19.34;55.20;99834.09;5485419;26;20003;-80
2024/04/13 06:01:09;;;;;;;14.82;6.32;;;15.00;99.90;;;19.47;55.24;99821.38;5421626;26;20333;-80
2024/04/13 06:03:39;;;;;;;13.55;6.22;;;15.10;99.90;;;19.58;54.54;99823.84;5421542;26;20357;-80
2024/04/13 06:06:07;;;;;;;11.63;6.30;;;15.30;99.90;;;19.70;54.77;99822.66;5450574;26;20530;-80
2024/04/13 06:08:37;;;;;;;16.55;6.47;;;15.50;99.90;;;19.82;54.36;99837.44;5454886;26;20018;-81
2024/04/13 06:11:06;;;;;;;15.18;5.70;;;15.60;99.90;;;19.89;54.41;99825.19;5404131;26;20003;-79
2024/04/13 06:13:39;;;;;;;17.08;6.10;;;15.70;99.90;;;20.03;53.78;99829.19;5422759;26;19999;-80
2024/04/13 06:16:06;;;;;;;14.77;5.32;;;16.30;99.90;;;20.14;54.00;99837.78;5449056;26;20002;-79
2024/04/13 06:18:37;;;;;;;11.35;5.20;;;16.00;99.90;;;20.28;53.30;99836.47;5411831;26;20472;-79
2024/04/13 06:21:05;;;;;;;16.58;5.45;;;16.10;99.90;;;20.42;52.82;99846.56;5434058;26;20018;-80
2024/04/13 06:23:35;;;;;;;17.85;5.22;;;16.40;99.90;;;20.55;52.79;99847.00;5441326;26;20006;-80
2024/04/13 06:26:04;;;;;;;14.98;5.10;;;16.50;99.90;;;20.65;52.50;99846.94;5420200;26;20019;-80
2024/04/13 06:28:38;;;;;;;16.75;6.15;;;16.70;99.90;;;20.78;51.97;99842.03;5425380;26;20006;-79
2024/04/13 06:31:06;;;;;;;16.23;5.65;;;16.80;99.90;;;20.92;51.91;99848.63;5450687;26;20018;-79
2024/04/13 06:33:37;;;;;;;18.48;5.82;;;16.90;99.90;;;21.07;51.37;99850.59;5457425;26;20027;-80
2024/04/13 06:36:05;;;;;;;11.88;5.55;;;17.10;99.30;;;21.21;51.59;99849.19;5455120;26;20017;-80
2024/04/13 06:38:35;;;;;;;14.80;5.43;;;17.30;98.60;;;21.31;51.57;99846.44;5451369;26;20006;-80
2024/04/13 06:41:22;;;;;;;17.95;5.88;;;17.40;98.30;;;21.46;51.11;99845.72;5433010;26;19999;-79
2024/04/13 06:43:55;;;;;;;17.48;5.93;;;17.40;97.50;;;21.56;50.42;99841.09;5448490;26;20006;-80
2024/04/13 06:46:23;;;;;;;16.80;5.78;;;17.70;97.80;;;21.73;50.60;99847.34;5452635;26;20530;-80
2024/04/13 06:48:53;;;;;;;16.30;5.95;;;17.90;96.60;;;21.88;50.74;99837.72;5449525;26;20086;-80
2024/04/13 06:51:21;;;;;;;16.02;5.40;;;18.10;95.90;;;22.04;50.19;99827.13;5427771;26;20412;-81
2024/04/13 06:53:51;;;;;;;15.23;6.07;;;18.30;95.10;;;22.21;50.07;99828.00;5453432;26;20017;-80
2024/04/13 06:56:19;;;;;;;17.00;6.68;;;18.50;94.40;;;22.32;49.71;99818.84;5462434;26;19998;-81
2024/04/13 06:58:50;;;;;;;15.80;6.20;;;18.50;93.30;;;22.43;48.99;99823.84;5424447;26;20006;-80
2024/04/13 07:01:20;;;;;;;16.17;6.32;;;18.60;93.40;;;22.61;49.42;99821.88;5448176;26;20223;-81
2024/04/13 07:03:51;;;;;;;16.73;6.75;;;18.90;92.80;;;22.77;48.53;99816.56;5457341;26;20021;-80
2024/04/13 07:06:19;;;;;;;19.58;6.78;;;19.00;91.50;;;22.82;48.94;99813.38;5456988;26;20463;-80
2024/04/13 07:08:49;;;;;;;20.13;6.78;;;19.00;91.50;;;22.89;48.77;99820.53;5457227;26;20006;-79
2024/04/13 07:11:17;;;;;;;16.10;5.63;;;19.00;91.70;;;22.99;48.57;99823.88;5453139;26;20018;-80
2024/04/13 07:13:48;;;;;;;18.00;6.75;;;19.00;92.00;;;23.11;48.39;99827.88;5450805;26;20018;-80
2024/04/13 07:16:19;;;;;;;18.35;5.65;;;19.20;91.30;;;23.20;47.75;99828.69;5449352;26;20516;-80
2024/04/13 07:18:49;;;;;;;21.25;6.50;;;19.30;91.20;;;23.34;47.57;99822.63;5453501;26;20007;-79
2024/04/13 07:21:17;;;;;;;17.20;5.90;;;19.40;91.10;;;23.51;47.97;99826.13;5488917;26;20018;-78
2024/04/13 07:23:48;;;;;;;16.35;6.95;;;19.70;90.60;;;23.66;47.42;99827.91;5488406;26;20184;-78
2024/04/13 07:26:15;;;;;;;18.52;6.90;;;19.90;89.10;;;23.80;46.72;99822.81;5436268;26;20018;-78
2024/04/13 07:28:46;;;;;;;13.40;6.00;;;20.00;88.00;;;23.97;47.33;99825.25;5420962;26;20007;-78
2024/04/13 07:31:13;;;;;;;15.60;6.32;;;20.30;88.10;;;24.14;46.31;99842.88;5446578;26;19999;-79
2024/04/13 07:33:47;;;;;;;16.05;5.97;;;20.40;88.00;;;24.32;46.39;99833.75;5451393;26;20344;-78
2024/04/13 07:36:16;;;;;;;13.35;7.00;;;20.50;87.00;;;24.45;46.53;99834.84;5485291;26;20447;-79
2024/04/13 07:38:46;;;;;;;12.63;5.82;;;20.70;86.90;;;24.55;46.35;99837.25;5462104;26;20080;-80
2024/04/13 07:41:14;;;;;;;17.05;6.07;;;20.70;87.00;;;24.69;45.92;99836.50;5449497;26;20488;-79
2024/04/13 07:43:45;;;;;;;14.77;6.68;;;20.90;86.30;;;24.84;45.83;99834.72;5417305;26;20479;-79
2024/04/13 07:46:12;;;;;;;15.63;7.55;;;21.00;85.50;;;24.99;45.47;99832.06;5442204;26;20022;-79
2024/04/13 07:48:45;;;;;;;18.60;7.00;;;21.10;84.80;;;25.14;44.78;99827.56;5429193;26;20012;-80
2024/04/13 07:51:13;;;;;;;20.85;7.65;;;21.30;84.00;;;25.28;44.52;99840.16;5432906;26;20363;-79
2024/04/13 07:53:43;;;;;;;18.40;8.13;;;21.40;83.30;;;25.40;44.17;99845.88;5447779;26;20525;-79
2024/04/13 07:56:11;;;;;;;25.70;9.13;;;21.60;83.30;;;25.52;43.69;99837.22;5452980;26;20037;-80
2024/04/13 07:58:43;;;;;;;23.33;9.77;;;21.70;81.70;;;25.65;43.25;99834.72;5450946;26;20019;-79
2024/04/13 08:01:10;;;;;;;20.67;9.93;;;21.70;80.80;;;25.72;42.36;99843.69;5453629;26;20007;-81
2024/04/13 08:03:41;;;;;;;22.00;9.82;;;21.50;80.00;;;25.78;42.39;99845.59;5452620;26;20007;-79
2024/04/13 08:06:11;;;;;;;18.83;10.60;;;21.70;80.60;;;25.95;42.36;99848.91;5453017;26;20019;-80
2024/04/13 08:08:42;;;;;;;25.40;13.02;;;21.90;80.00;;;26.08;42.48;99848.25;5420534;26;20468;-79
2024/04/13 08:11:09;;;;;;;21.90;13.95;;;22.20;79.00;;;26.26;41.73;99844.16;5450831;26;20039;-78
2024/04/13 08:13:40;;;;;;;23.75;14.38;;;22.60;78.10;;;26.46;41.80;99846.22;5451866;26;20021;-78
2024/04/13 08:16:12;;;;;;;24.23;13.73;;;22.80;77.30;;;26.63;41.38;99851.16;5451053;26;20448;-77
2024/04/13 08:18:43;;;;;;;21.30;13.73;;;22.80;76.90;;;26.71;41.22;99847.47;5460643;26;20491;-77
2024/04/13 08:21:13;;;;;;;24.98;14.73;;;22.80;77.40;;;26.90;40.96;99846.88;5487136;26;20006;-77
2024/04/13 08:23:43;;;;;;;22.83;12.25;;;23.10;76.30;;;27.02;41.11;99845.31;5451832;26;20021;-76
2024/04/13 08:26:11;;;;;;;21.27;11.75;;;23.20;76.10;;;27.23;40.78;99847.94;5452832;26;20025;-78
2024/04/13 08:28:41;;;;;;;22.02;13.32;;;23.50;76.00;;;27.43;40.45;99839.19;5443948;26;20015;-77
2024/04/13 08:31:14;;;;;;;24.10;13.40;;;23.60;74.10;;;27.49;40.11;99841.94;5456910;26;20340;-78
2024/04/13 08:33:46;;;;;;;22.38;12.75;;;23.60;74.30;;;27.60;39.92;99848.59;5452283;26;20007;-77
2024/04/13 08:36:16;;;;;;;22.10;12.70;;;23.50;74.20;;;27.62;39.56;99846.56;5454060;26;20083;-77
2024/04/13 08:38:47;;;;;;;23.88;12.65;;;23.30;74.80;;;27.63;39.44;99842.84;5421264;26;20480;-78
2024/04/13 08:41:27;;;;;;;20.90;11.82;;;23.20;74.60;;;27.67;39.56;99836.84;5470229;26;20083;-77
2024/04/13 08:43:57;;;;;;;24.88;11.98;;;23.40;75.20;;;27.80;39.47;99839.59;5449862;26;20007;-77
2024/04/13 08:46:25;;;;;;;20.20;13.43;;;23.70;74.90;;;27.90;39.33;99849.16;5468346;26;20002;-76
2024/04/13 08:48:57;;;;;;;18.90;11.00;;;23.80;73.70;;;28.00;39.37;99852.31;5468320;26;20018;-76
2024/04/13 08:51:29;;;;;;;21.50;9.75;;;24.00;73.10;;;28.12;39.49;99843.50;5472477;26;20339;-77
2024/04/13 08:54:00;;;;;;;26.00;13.25;;;24.40;73.50;;;28.24;38.60;99843.75;5453190;26;20557;-77
2024/04/13 08:56:29;;;;;;;24.83;11.95;;;24.30;72.00;;;28.31;38.52;99848.13;5449576;26;20007;-77
2024/04/13 08:59:03;;;;;;;22.98;11.60;;;24.30;72.20;;;28.43;38.61;99850.19;5463139;26;20471;-77
2024/04/13 09:01:33;;;;;;;24.38;12.82;;;24.50;71.90;;;28.51;38.09;99845.47;5453702;26;20425;-77
2024/04/13 09:04:04;;;;;;;21.30;11.05;;;24.40;71.20;;;28.62;37.84;99838.59;5482054;26;20021;-77
2024/04/13 09:06:34;;;;;;;17.27;9.20;;;24.60;71.00;;;28.74;38.11;99832.47;5454349;26;20074;-78
2024/04/13 09:09:08;;;;;;;22.73;10.27;;;24.70;70.20;;;28.84;37.73;99842.81;5459995;26;20021;-77
2024/04/13 09:11:36;;;;;;;18.88;10.68;;;24.90;69.60;;;28.91;37.45;99835.56;5450415;26;20332;-77
2024/04/13 09:14:07;;;;;;;20.38;11.45;;;24.80;69.30;;;28.95;37.38;99839.50;5468273;26;20017;-78
2024/04/13 09:16:34;;;;;;;15.63;10.30;;;24.90;69.60;;;29.08;37.23;99833.28;5472458;26;20424;-77
2024/04/13 09:19:05;;;;;;;18.08;10.45;;;25.20;68.70;;;29.21;36.90;99836.75;5449540;26;20018;-77
2024/04/13 09:21:40;;;;;;;18.23;9.32;;;25.40;68.40;;;29.39;36.78;99840.72;5458711;26;20018;-77
2024/04/13 09:24:11;;;;;;;16.52;9.00;;;25.50;66.80;;;29.49;35.87;99843.81;5464819;26;20006;-77
2024/04/13 09:26:42;;;;;;;26.42;9.85;;;25.50;65.90;;;29.60;35.61;99845.88;5443420;26;20759;-78
2024/04/13 09:29:13;;;;;;;18.73;9.18;;;25.60;65.00;;;29.57;35.42;99838.19;5449610;26;20007;-77
2024/04/13 09:31:41;;;;;;;17.83;9.20;;;25.50;64.80;;;29.56;35.93;99840.06;5457011;26;20019;-77
2024/04/13 09:34:19;;;;;;;20.85;9.55;;;25.60;65.20;;;29.68;36.01;99841.06;5480754;26;20446;-78
2024/04/13 09:36:50;;;;;;;17.15;9.15;;;25.60;65.50;;;29.78;35.84;99837.91;5465649;26;20007;-78
2024/04/13 09:39:25;;;;;;;18.75;9.32;;;25.70;65.40;;;29.94;35.78;99839.31;5449584;26;20539;-77
2024/04/13 09:41:52;;;;;;;18.17;8.80;;;26.10;65.60;;;30.10;35.57;99836.16;5417906;26;20002;-78
2024/04/13 09:44:30;;;;;;;17.13;8.82;;;26.20;64.80;;;30.24;35.32;99835.84;5448696;26;20472;-78
2024/04/13 09:47:03;;;;;;;17.80;9.50;;;26.30;63.50;;;30.26;34.48;99832.94;5435505;26;20004;-78
2024/04/13 09:49:33;;;;;;;20.15;9.95;;;26.20;63.10;;;30.26;34.42;99833.75;5462456;26;20584;-78
2024/04/13 09:52:05;;;;;;;18.52;10.13;;;26.10;62.90;;;30.27;34.02;99816.50;5442824;26;20015;-78
2024/04/13 09:54:35;;;;;;;17.27;8.70;;;25.90;62.00;;;30.27;34.20;99821.91;5449938;26;20022;-78
2024/04/13 09:57:04;;;;;;;17.50;9.48;;;25.90;62.00;;;30.30;33.62;99813.34;5460946;26;20638;-78
2024/04/13 09:59:36;;;;;;;17.60;9.55;;;26.00;62.20;;;30.35;33.80;99821.66;5461103;26;20006;-78
2024/04/13 10:02:04;;;;;;;;;;;26.20;62.30;;;30.28;34.61;99815.44;5454168;26;20014;-79
2024/04/13 10:04:34;;;;;;;17.77;9.95;;;26.30;61.90;;;30.44;33.76;99816.81;5452469;26;20376;-79
2024/04/13 10:07:06;;;;;;;20.75;10.23;;;26.20;61.50;;;30.46;33.78;99814.75;5477873;26;20017;-78
2024/04/13 10:09:38;;;;;;;21.33;9.40;;;26.10;62.10;;;30.49;33.26;99813.47;5449355;26;20499;-78
2024/04/13 10:12:12;;;;;;;16.73;8.07;;;25.90;60.60;;;30.43;34.17;99809.75;5447869;26;20006;-78
2024/04/13 10:14:45;;;;;;;18.42;8.20;;;26.00;63.20;;;30.53;34.35;99804.69;5420261;26;20000;-78
2024/04/13 10:17:14;;;;;;;15.43;7.72;;;26.50;62.70;;;30.74;34.08;99814.31;5437137;26;20014;-78
2024/04/13 10:19:46;;;;;;;18.70;9.57;;;26.90;61.20;;;30.90;33.32;99805.66;5464474;26;20006;-78
2024/04/13 10:22:18;;;;;;;19.45;8.75;;;27.00;60.00;;;30.87;33.03;99811.50;5484959;26;20002;-78
2024/04/13 10:24:49;;;;;;;19.77;9.05;;;26.80;59.60;;;30.86;33.25;99810.66;5485002;26;20006;-78